sensor_id;sensor_type;location;lat;lon;timestamp;temperature;humidity
3850;DHT22;1940;51.052;13.678;2023-05-29T00:00:04;13.40;75.60
3850;DHT22;1940;51.052;13.678;2023-05-29T00:02:32;13.40;75.60
3850;DHT22;1940;51.052;13.678;2023-05-29T00:04:58;13.40;75.70
3850;DHT22;1940;51.052;13.678;2023-05-29T00:07:23;13.40;75.80
3850;DHT22;1940;51.052;13.678;2023-05-29T00:09:49;13.40;75.80
3850;DHT22;1940;51.052;13.678;2023-05-29T00:12:14;13.30;76.10
3850;DHT22;1940;51.052;13.678;2023-05-29T00:14:40;13.30;76.00
3850;DHT22;1940;51.052;13.678;2023-05-29T00:17:06;13.20;76.20
3850;DHT22;1940;51.052;13.678;2023-05-29T00:19:31;13.10;76.30
3850;DHT22;1940;51.052;13.678;2023-05-29T00:21:56;13.10;76.70
3850;DHT22;1940;51.052;13.678;2023-05-29T00:24:22;13.10;76.70
3850;DHT22;1940;51.052;13.678;2023-05-29T00:26:47;13.00;76.80
3850;DHT22;1940;51.052;13.678;2023-05-29T00:29:13;13.00;76.80
3850;DHT22;1940;51.052;13.678;2023-05-29T00:31:39;12.90;76.90
3850;DHT22;1940;51.052;13.678;2023-05-29T00:34:04;12.90;76.30
3850;DHT22;1940;51.052;13.678;2023-05-29T00:36:30;12.90;76.50
3850;DHT22;1940;51.052;13.678;2023-05-29T00:38:56;12.90;76.20
3850;DHT22;1940;51.052;13.678;2023-05-29T00:41:22;12.80;76.60
3850;DHT22;1940;51.052;13.678;2023-05-29T00:43:47;12.80;76.70
3850;DHT22;1940;51.052;13.678;2023-05-29T00:46:14;12.80;77.00
3850;DHT22;1940;51.052;13.678;2023-05-29T00:48:42;12.70;77.10
3850;DHT22;1940;51.052;13.678;2023-05-29T00:51:09;12.70;77.10
3850;DHT22;1940;51.052;13.678;2023-05-29T00:53:36;12.50;77.50
3850;DHT22;1940;51.052;13.678;2023-05-29T00:56:02;12.40;77.80
3850;DHT22;1940;51.052;13.678;2023-05-29T00:58:29;12.40;78.00
3850;DHT22;1940;51.052;13.678;2023-05-29T01:00:55;12.30;78.10
3850;DHT22;1940;51.052;13.678;2023-05-29T01:03:21;12.30;78.10
3850;DHT22;1940;51.052;13.678;2023-05-29T01:05:48;12.20;78.20
3850;DHT22;1940;51.052;13.678;2023-05-29T01:08:14;12.20;78.30
3850;DHT22;1940;51.052;13.678;2023-05-29T01:10:39;12.20;78.70
3850;DHT22;1940;51.052;13.678;2023-05-29T01:13:21;12.20;78.60
3850;DHT22;1940;51.052;13.678;2023-05-29T01:16:12;12.10;78.60
3850;DHT22;1940;51.052;13.678;2023-05-29T01:18:51;12.10;78.80
3850;DHT22;1940;51.052;13.678;2023-05-29T01:21:41;12.10;79.00
3850;DHT22;1940;51.052;13.678;2023-05-29T01:24:26;12.00;79.40
3850;DHT22;1940;51.052;13.678;2023-05-29T01:27:05;11.90;79.80
3850;DHT22;1940;51.052;13.678;2023-05-29T01:29:34;11.70;80.00
3850;DHT22;1940;51.052;13.678;2023-05-29T01:32:00;11.70;80.00
3850;DHT22;1940;51.052;13.678;2023-05-29T01:34:27;11.70;80.00
3850;DHT22;1940;51.052;13.678;2023-05-29T01:36:53;11.70;80.00
3850;DHT22;1940;51.052;13.678;2023-05-29T01:39:19;11.70;79.80
3850;DHT22;1940;51.052;13.678;2023-05-29T01:41:45;11.60;79.80
3850;DHT22;1940;51.052;13.678;2023-05-29T01:44:12;11.60;79.90
3850;DHT22;1940;51.052;13.678;2023-05-29T01:46:39;11.60;79.90
3850;DHT22;1940;51.052;13.678;2023-05-29T01:49:05;11.50;80.20
3850;DHT22;1940;51.052;13.678;2023-05-29T01:51:31;11.50;80.20
3850;DHT22;1940;51.052;13.678;2023-05-29T01:53:58;11.40;80.30
3850;DHT22;1940;51.052;13.678;2023-05-29T01:56:26;11.40;80.50
3850;DHT22;1940;51.052;13.678;2023-05-29T01:58:53;11.40;80.70
3850;DHT22;1940;51.052;13.678;2023-05-29T02:01:21;11.40;80.60
3850;DHT22;1940;51.052;13.678;2023-05-29T02:03:47;11.40;80.70
3850;DHT22;1940;51.052;13.678;2023-05-29T02:06:12;11.40;80.80
3850;DHT22;1940;51.052;13.678;2023-05-29T02:08:38;11.30;80.90
3850;DHT22;1940;51.052;13.678;2023-05-29T02:11:03;11.20;81.00
3850;DHT22;1940;51.052;13.678;2023-05-29T02:13:29;11.20;81.00
3850;DHT22;1940;51.052;13.678;2023-05-29T02:15:54;11.10;81.60
3850;DHT22;1940;51.052;13.678;2023-05-29T02:18:20;10.90;81.70
3850;DHT22;1940;51.052;13.678;2023-05-29T02:20:45;10.90;81.80
3850;DHT22;1940;51.052;13.678;2023-05-29T02:23:12;10.90;81.60
3850;DHT22;1940;51.052;13.678;2023-05-29T02:25:37;10.90;81.50
3850;DHT22;1940;51.052;13.678;2023-05-29T02:28:04;10.80;81.60
3850;DHT22;1940;51.052;13.678;2023-05-29T02:30:30;10.80;81.80
3850;DHT22;1940;51.052;13.678;2023-05-29T02:32:55;10.90;81.80
3850;DHT22;1940;51.052;13.678;2023-05-29T02:35:21;10.90;81.60
3850;DHT22;1940;51.052;13.678;2023-05-29T02:37:48;10.90;81.90
3850;DHT22;1940;51.052;13.678;2023-05-29T02:40:14;10.80;81.90
3850;DHT22;1940;51.052;13.678;2023-05-29T02:42:40;10.80;82.20
3850;DHT22;1940;51.052;13.678;2023-05-29T02:45:05;10.80;82.10
3850;DHT22;1940;51.052;13.678;2023-05-29T02:47:31;10.70;82.40
3850;DHT22;1940;51.052;13.678;2023-05-29T02:49:56;10.70;82.40
3850;DHT22;1940;51.052;13.678;2023-05-29T02:52:22;10.70;82.40
3850;DHT22;1940;51.052;13.678;2023-05-29T02:54:48;10.70;82.30
3850;DHT22;1940;51.052;13.678;2023-05-29T02:57:14;10.60;82.20
3850;DHT22;1940;51.052;13.678;2023-05-29T02:59:39;10.60;82.10
3850;DHT22;1940;51.052;13.678;2023-05-29T03:02:05;10.40;82.30
3850;DHT22;1940;51.052;13.678;2023-05-29T03:04:31;10.10;83.20
3850;DHT22;1940;51.052;13.678;2023-05-29T03:06:56;9.80;84.30
3850;DHT22;1940;51.052;13.678;2023-05-29T03:09:22;9.70;85.10
3850;DHT22;1940;51.052;13.678;2023-05-29T03:11:47;9.80;85.50
3850;DHT22;1940;51.052;13.678;2023-05-29T03:14:15;9.90;85.70
3850;DHT22;1940;51.052;13.678;2023-05-29T03:16:40;10.00;85.80
3850;DHT22;1940;51.052;13.678;2023-05-29T03:19:06;10.10;86.20
3850;DHT22;1940;51.052;13.678;2023-05-29T03:21:33;10.40;85.60
3850;DHT22;1940;51.052;13.678;2023-05-29T03:23:58;10.80;84.80
3850;DHT22;1940;51.052;13.678;2023-05-29T03:26:24;11.10;83.90
3850;DHT22;1940;51.052;13.678;2023-05-29T03:28:51;11.40;83.10
3850;DHT22;1940;51.052;13.678;2023-05-29T03:31:16;11.60;81.90
3850;DHT22;1940;51.052;13.678;2023-05-29T03:33:42;11.60;81.60
3850;DHT22;1940;51.052;13.678;2023-05-29T03:36:07;12.00;80.60
3850;DHT22;1940;51.052;13.678;2023-05-29T03:38:33;12.20;79.60
3850;DHT22;1940;51.052;13.678;2023-05-29T03:40:59;12.40;79.00
3850;DHT22;1940;51.052;13.678;2023-05-29T03:43:24;12.70;78.20
3850;DHT22;1940;51.052;13.678;2023-05-29T03:45:50;13.10;77.40
3850;DHT22;1940;51.052;13.678;2023-05-29T03:48:15;13.40;76.20
3850;DHT22;1940;51.052;13.678;2023-05-29T03:50:41;13.70;75.10
3850;DHT22;1940;51.052;13.678;2023-05-29T03:53:06;14.00;74.60
3850;DHT22;1940;51.052;13.678;2023-05-29T03:55:32;14.30;73.70
3850;DHT22;1940;51.052;13.678;2023-05-29T03:57:57;14.50;73.20
3850;DHT22;1940;51.052;13.678;2023-05-29T04:00:23;14.90;72.40
3850;DHT22;1940;51.052;13.678;2023-05-29T04:02:48;15.60;70.40
3850;DHT22;1940;51.052;13.678;2023-05-29T04:05:14;16.00;69.10
3850;DHT22;1940;51.052;13.678;2023-05-29T04:07:41;16.20;68.00
3850;DHT22;1940;51.052;13.678;2023-05-29T04:10:07;16.60;67.60
3850;DHT22;1940;51.052;13.678;2023-05-29T04:12:33;17.30;66.60
3850;DHT22;1940;51.052;13.678;2023-05-29T04:14:59;18.00;64.90
3850;DHT22;1940;51.052;13.678;2023-05-29T04:17:24;18.50;63.60
3850;DHT22;1940;51.052;13.678;2023-05-29T04:19:50;19.10;62.10
3850;DHT22;1940;51.052;13.678;2023-05-29T04:22:16;19.60;61.20
3850;DHT22;1940;51.052;13.678;2023-05-29T04:24:41;20.10;60.10
3850;DHT22;1940;51.052;13.678;2023-05-29T04:27:10;20.60;59.40
3850;DHT22;1940;51.052;13.678;2023-05-29T04:29:39;20.90;57.60
3850;DHT22;1940;51.052;13.678;2023-05-29T04:32:06;21.20;57.20
3850;DHT22;1940;51.052;13.678;2023-05-29T04:34:31;21.50;56.30
3850;DHT22;1940;51.052;13.678;2023-05-29T04:36:57;21.90;55.30
3850;DHT22;1940;51.052;13.678;2023-05-29T04:39:24;22.20;54.80
3850;DHT22;1940;51.052;13.678;2023-05-29T04:41:50;22.30;54.50
3850;DHT22;1940;51.052;13.678;2023-05-29T04:44:16;22.50;54.20
3850;DHT22;1940;51.052;13.678;2023-05-29T04:46:42;21.80;55.40
3850;DHT22;1940;51.052;13.678;2023-05-29T04:49:09;21.90;55.30
3850;DHT22;1940;51.052;13.678;2023-05-29T04:51:35;22.40;54.30
3850;DHT22;1940;51.052;13.678;2023-05-29T04:54:01;22.50;54.00
3850;DHT22;1940;51.052;13.678;2023-05-29T04:56:27;22.20;54.50
3850;DHT22;1940;51.052;13.678;2023-05-29T04:58:53;22.70;53.90
3850;DHT22;1940;51.052;13.678;2023-05-29T05:01:19;22.90;53.50
3850;DHT22;1940;51.052;13.678;2023-05-29T05:03:44;23.10;52.90
3850;DHT22;1940;51.052;13.678;2023-05-29T05:06:11;23.50;52.50
3850;DHT22;1940;51.052;13.678;2023-05-29T05:08:37;23.60;51.70
3850;DHT22;1940;51.052;13.678;2023-05-29T05:11:03;23.80;51.50
3850;DHT22;1940;51.052;13.678;2023-05-29T05:13:29;23.70;51.10
3850;DHT22;1940;51.052;13.678;2023-05-29T05:15:55;24.00;51.20
3850;DHT22;1940;51.052;13.678;2023-05-29T05:18:20;24.10;50.70
3850;DHT22;1940;51.052;13.678;2023-05-29T05:20:46;23.80;51.20
3850;DHT22;1940;51.052;13.678;2023-05-29T05:23:12;23.80;51.20
3850;DHT22;1940;51.052;13.678;2023-05-29T05:25:37;23.60;51.60
3850;DHT22;1940;51.052;13.678;2023-05-29T05:28:04;23.60;51.30
3850;DHT22;1940;51.052;13.678;2023-05-29T05:30:30;24.00;50.90
3850;DHT22;1940;51.052;13.678;2023-05-29T05:32:55;23.70;50.90
3850;DHT22;1940;51.052;13.678;2023-05-29T05:35:21;24.20;50.50
3850;DHT22;1940;51.052;13.678;2023-05-29T05:37:47;24.80;49.20
3850;DHT22;1940;51.052;13.678;2023-05-29T05:40:12;25.00;49.00
3850;DHT22;1940;51.052;13.678;2023-05-29T05:42:38;25.50;48.00
3850;DHT22;1940;51.052;13.678;2023-05-29T05:45:04;25.70;48.00
3850;DHT22;1940;51.052;13.678;2023-05-29T05:47:31;25.80;47.50
3850;DHT22;1940;51.052;13.678;2023-05-29T05:49:57;25.80;47.30
3850;DHT22;1940;51.052;13.678;2023-05-29T05:52:24;25.70;47.80
3850;DHT22;1940;51.052;13.678;2023-05-29T05:54:50;25.60;48.20
3850;DHT22;1940;51.052;13.678;2023-05-29T05:57:15;25.60;47.80
3850;DHT22;1940;51.052;13.678;2023-05-29T05:59:41;25.80;47.40
3850;DHT22;1940;51.052;13.678;2023-05-29T06:02:06;26.10;47.20
3850;DHT22;1940;51.052;13.678;2023-05-29T06:04:32;26.30;47.20
3850;DHT22;1940;51.052;13.678;2023-05-29T06:06:58;26.10;47.40
3850;DHT22;1940;51.052;13.678;2023-05-29T06:09:23;25.60;48.10
3850;DHT22;1940;51.052;13.678;2023-05-29T06:11:50;26.10;47.70
3850;DHT22;1940;51.052;13.678;2023-05-29T06:14:15;26.40;46.80
3850;DHT22;1940;51.052;13.678;2023-05-29T06:16:42;26.40;46.60
3850;DHT22;1940;51.052;13.678;2023-05-29T06:19:08;26.60;46.90
3850;DHT22;1940;51.052;13.678;2023-05-29T06:21:34;25.60;47.80
3850;DHT22;1940;51.052;13.678;2023-05-29T06:23:59;25.90;47.40
3850;DHT22;1940;51.052;13.678;2023-05-29T06:26:25;26.40;46.60
3850;DHT22;1940;51.052;13.678;2023-05-29T06:28:50;26.10;46.60
3850;DHT22;1940;51.052;13.678;2023-05-29T06:31:16;25.90;47.60
3850;DHT22;1940;51.052;13.678;2023-05-29T06:33:42;25.30;48.20
3850;DHT22;1940;51.052;13.678;2023-05-29T06:36:07;24.80;48.20
3850;DHT22;1940;51.052;13.678;2023-05-29T06:38:33;24.20;48.80
3850;DHT22;1940;51.052;13.678;2023-05-29T06:40:58;23.60;50.10
3850;DHT22;1940;51.052;13.678;2023-05-29T06:43:24;23.40;50.60
3850;DHT22;1940;51.052;13.678;2023-05-29T06:45:49;24.10;50.60
3850;DHT22;1940;51.052;13.678;2023-05-29T06:48:15;24.30;49.60
3850;DHT22;1940;51.052;13.678;2023-05-29T06:50:40;24.10;48.60
3850;DHT22;1940;51.052;13.678;2023-05-29T06:53:06;25.00;48.00
3850;DHT22;1940;51.052;13.678;2023-05-29T06:55:31;25.20;48.40
3850;DHT22;1940;51.052;13.678;2023-05-29T06:57:57;24.90;48.30
3850;DHT22;1940;51.052;13.678;2023-05-29T07:00:22;25.20;47.90
3850;DHT22;1940;51.052;13.678;2023-05-29T07:02:48;25.60;46.80
3850;DHT22;1940;51.052;13.678;2023-05-29T07:05:13;25.80;46.40
3850;DHT22;1940;51.052;13.678;2023-05-29T07:07:39;25.60;47.40
3850;DHT22;1940;51.052;13.678;2023-05-29T07:10:05;25.20;49.20
3850;DHT22;1940;51.052;13.678;2023-05-29T07:12:31;25.90;47.50
3850;DHT22;1940;51.052;13.678;2023-05-29T07:14:57;25.80;47.90
3850;DHT22;1940;51.052;13.678;2023-05-29T07:17:22;26.20;47.10
3850;DHT22;1940;51.052;13.678;2023-05-29T07:19:47;25.80;47.10
3850;DHT22;1940;51.052;13.678;2023-05-29T07:22:15;26.10;46.90
3850;DHT22;1940;51.052;13.678;2023-05-29T07:24:40;25.60;46.30
3850;DHT22;1940;51.052;13.678;2023-05-29T07:27:06;25.80;46.60
3850;DHT22;1940;51.052;13.678;2023-05-29T07:29:32;25.40;46.60
3850;DHT22;1940;51.052;13.678;2023-05-29T07:31:57;25.10;48.40
3850;DHT22;1940;51.052;13.678;2023-05-29T07:34:23;25.90;46.00
3850;DHT22;1940;51.052;13.678;2023-05-29T07:39:25;26.30;46.30
3850;DHT22;1940;51.052;13.678;2023-05-29T07:41:51;25.60;47.20
3850;DHT22;1940;51.052;13.678;2023-05-29T07:44:16;25.30;47.40
3850;DHT22;1940;51.052;13.678;2023-05-29T07:46:42;25.90;46.90
3850;DHT22;1940;51.052;13.678;2023-05-29T07:49:07;26.00;47.00
3850;DHT22;1940;51.052;13.678;2023-05-29T07:51:33;26.50;46.60
3850;DHT22;1940;51.052;13.678;2023-05-29T07:53:58;27.30;45.80
3850;DHT22;1940;51.052;13.678;2023-05-29T07:56:24;28.00;44.40
3850;DHT22;1940;51.052;13.678;2023-05-29T07:58:51;27.80;44.60
3850;DHT22;1940;51.052;13.678;2023-05-29T08:01:18;28.00;44.20
3850;DHT22;1940;51.052;13.678;2023-05-29T08:03:44;28.80;43.40
3850;DHT22;1940;51.052;13.678;2023-05-29T08:06:10;28.90;43.90
3850;DHT22;1940;51.052;13.678;2023-05-29T08:08:36;28.40;45.70
3850;DHT22;1940;51.052;13.678;2023-05-29T08:11:01;28.10;45.50
3850;DHT22;1940;51.052;13.678;2023-05-29T08:13:27;27.40;46.50
3850;DHT22;1940;51.052;13.678;2023-05-29T08:15:53;27.60;46.00
3850;DHT22;1940;51.052;13.678;2023-05-29T08:18:19;27.30;45.70
3850;DHT22;1940;51.052;13.678;2023-05-29T08:20:44;27.40;45.80
3850;DHT22;1940;51.052;13.678;2023-05-29T08:23:10;27.60;44.70
3850;DHT22;1940;51.052;13.678;2023-05-29T08:25:36;27.60;46.50
3850;DHT22;1940;51.052;13.678;2023-05-29T08:28:01;27.90;45.60
3850;DHT22;1940;51.052;13.678;2023-05-29T08:30:27;29.10;44.90
3850;DHT22;1940;51.052;13.678;2023-05-29T08:32:52;30.10;43.50
3850;DHT22;1940;51.052;13.678;2023-05-29T08:35:18;30.50;42.80
3850;DHT22;1940;51.052;13.678;2023-05-29T08:37:43;30.10;41.60
3850;DHT22;1940;51.052;13.678;2023-05-29T08:40:10;29.30;42.60
3850;DHT22;1940;51.052;13.678;2023-05-29T08:42:43;28.80;42.90
3850;DHT22;1940;51.052;13.678;2023-05-29T08:45:13;29.00;42.40
3850;DHT22;1940;51.052;13.678;2023-05-29T08:47:40;28.70;43.60
3850;DHT22;1940;51.052;13.678;2023-05-29T08:50:08;29.30;42.50
3850;DHT22;1940;51.052;13.678;2023-05-29T08:52:35;28.80;42.20
3850;DHT22;1940;51.052;13.678;2023-05-29T08:55:04;28.90;42.30
3850;DHT22;1940;51.052;13.678;2023-05-29T08:57:30;29.20;43.00
3850;DHT22;1940;51.052;13.678;2023-05-29T08:59:56;29.20;43.20
3850;DHT22;1940;51.052;13.678;2023-05-29T09:02:22;29.00;42.90
3850;DHT22;1940;51.052;13.678;2023-05-29T09:04:48;28.70;41.40
3850;DHT22;1940;51.052;13.678;2023-05-29T09:07:21;29.00;40.70
3850;DHT22;1940;51.052;13.678;2023-05-29T09:09:48;29.10;40.80
3850;DHT22;1940;51.052;13.678;2023-05-29T09:12:14;29.30;40.90
3850;DHT22;1940;51.052;13.678;2023-05-29T09:14:41;29.20;40.00
3850;DHT22;1940;51.052;13.678;2023-05-29T09:17:08;29.30;39.40
3850;DHT22;1940;51.052;13.678;2023-05-29T09:19:36;29.00;39.60
3850;DHT22;1940;51.052;13.678;2023-05-29T09:22:02;28.90;39.30
3850;DHT22;1940;51.052;13.678;2023-05-29T09:24:29;29.10;40.00
3850;DHT22;1940;51.052;13.678;2023-05-29T09:26:55;29.20;40.70
3850;DHT22;1940;51.052;13.678;2023-05-29T09:29:22;29.00;41.00
3850;DHT22;1940;51.052;13.678;2023-05-29T09:31:47;30.30;38.70
3850;DHT22;1940;51.052;13.678;2023-05-29T09:34:13;30.30;39.10
3850;DHT22;1940;51.052;13.678;2023-05-29T09:36:39;29.90;40.20
3850;DHT22;1940;51.052;13.678;2023-05-29T09:39:05;29.60;40.40
3850;DHT22;1940;51.052;13.678;2023-05-29T09:41:40;29.50;40.50
3850;DHT22;1940;51.052;13.678;2023-05-29T09:44:06;30.00;40.30
3850;DHT22;1940;51.052;13.678;2023-05-29T09:46:35;30.10;40.40
3850;DHT22;1940;51.052;13.678;2023-05-29T09:49:10;30.30;40.00
3850;DHT22;1940;51.052;13.678;2023-05-29T09:51:36;30.70;39.00
3850;DHT22;1940;51.052;13.678;2023-05-29T09:54:13;30.40;39.10
3850;DHT22;1940;51.052;13.678;2023-05-29T09:56:41;30.00;38.90
3850;DHT22;1940;51.052;13.678;2023-05-29T09:59:13;29.70;39.30
3850;DHT22;1940;51.052;13.678;2023-05-29T10:01:40;30.00;38.20
3850;DHT22;1940;51.052;13.678;2023-05-29T10:04:07;30.40;38.80
3850;DHT22;1940;51.052;13.678;2023-05-29T10:06:41;30.00;38.50
3850;DHT22;1940;51.052;13.678;2023-05-29T10:09:09;30.00;38.70
3850;DHT22;1940;51.052;13.678;2023-05-29T10:11:37;30.20;38.70
3850;DHT22;1940;51.052;13.678;2023-05-29T10:14:24;30.50;37.90
3850;DHT22;1940;51.052;13.678;2023-05-29T10:17:12;30.80;38.40
3850;DHT22;1940;51.052;13.678;2023-05-29T10:19:39;31.00;38.80
3850;DHT22;1940;51.052;13.678;2023-05-29T10:22:06;30.50;38.70
3850;DHT22;1940;51.052;13.678;2023-05-29T10:24:33;30.40;39.20
3850;DHT22;1940;51.052;13.678;2023-05-29T10:27:01;29.90;39.30
3850;DHT22;1940;51.052;13.678;2023-05-29T10:29:43;30.00;38.50
3850;DHT22;1940;51.052;13.678;2023-05-29T10:35:11;30.80;38.20
3850;DHT22;1940;51.052;13.678;2023-05-29T10:38:12;30.90;38.10
3850;DHT22;1940;51.052;13.678;2023-05-29T10:43:48;30.70;38.20
3850;DHT22;1940;51.052;13.678;2023-05-29T10:49:18;30.80;38.20
3850;DHT22;1940;51.052;13.678;2023-05-29T10:51:44;31.00;38.60
3850;DHT22;1940;51.052;13.678;2023-05-29T10:54:10;30.60;38.00
3850;DHT22;1940;51.052;13.678;2023-05-29T10:56:38;30.70;38.80
3850;DHT22;1940;51.052;13.678;2023-05-29T10:59:07;30.40;38.90
3850;DHT22;1940;51.052;13.678;2023-05-29T11:01:33;30.20;39.50
3850;DHT22;1940;51.052;13.678;2023-05-29T11:06:45;30.10;39.00
3850;DHT22;1940;51.052;13.678;2023-05-29T11:09:31;29.80;39.10
3850;DHT22;1940;51.052;13.678;2023-05-29T11:12:22;30.70;38.70
3850;DHT22;1940;51.052;13.678;2023-05-29T11:15:11;29.80;40.50
3850;DHT22;1940;51.052;13.678;2023-05-29T11:20:07;28.20;41.70
3850;DHT22;1940;51.052;13.678;2023-05-29T11:23:00;27.00;44.00
3850;DHT22;1940;51.052;13.678;2023-05-29T11:25:27;25.90;45.60
3850;DHT22;1940;51.052;13.678;2023-05-29T11:27:53;25.80;45.30
3850;DHT22;1940;51.052;13.678;2023-05-29T11:30:24;25.50;45.30
3850;DHT22;1940;51.052;13.678;2023-05-29T11:33:00;25.30;45.80
3850;DHT22;1940;51.052;13.678;2023-05-29T11:35:30;25.50;46.90
3850;DHT22;1940;51.052;13.678;2023-05-29T11:38:05;25.70;46.20
3850;DHT22;1940;51.052;13.678;2023-05-29T11:40:41;25.70;44.80
3850;DHT22;1940;51.052;13.678;2023-05-29T11:46:00;26.20;44.80
3850;DHT22;1940;51.052;13.678;2023-05-29T11:48:26;26.10;45.70
3850;DHT22;1940;51.052;13.678;2023-05-29T11:50:52;25.90;45.20
3850;DHT22;1940;51.052;13.678;2023-05-29T11:53:18;26.40;44.30
3850;DHT22;1940;51.052;13.678;2023-05-29T11:55:43;26.40;43.90
3850;DHT22;1940;51.052;13.678;2023-05-29T11:58:09;26.10;45.70
3850;DHT22;1940;51.052;13.678;2023-05-29T12:00:36;26.10;44.30
3850;DHT22;1940;51.052;13.678;2023-05-29T12:03:02;26.10;45.80
3850;DHT22;1940;51.052;13.678;2023-05-29T12:05:52;25.80;44.20
3850;DHT22;1940;51.052;13.678;2023-05-29T12:08:24;25.70;45.00
3850;DHT22;1940;51.052;13.678;2023-05-29T12:10:51;25.70;45.10
3850;DHT22;1940;51.052;13.678;2023-05-29T12:13:19;25.70;45.20
3850;DHT22;1940;51.052;13.678;2023-05-29T12:15:45;25.60;46.00
3850;DHT22;1940;51.052;13.678;2023-05-29T12:18:12;25.60;44.90
3850;DHT22;1940;51.052;13.678;2023-05-29T12:20:38;25.60;44.60
3850;DHT22;1940;51.052;13.678;2023-05-29T12:23:05;25.50;45.10
3850;DHT22;1940;51.052;13.678;2023-05-29T12:25:31;25.40;45.90
3850;DHT22;1940;51.052;13.678;2023-05-29T12:27:58;25.50;45.10
3850;DHT22;1940;51.052;13.678;2023-05-29T12:30:25;25.40;44.70
3850;DHT22;1940;51.052;13.678;2023-05-29T12:32:52;25.50;44.90
3850;DHT22;1940;51.052;13.678;2023-05-29T12:35:22;25.40;45.50
3850;DHT22;1940;51.052;13.678;2023-05-29T12:37:49;25.60;45.80
3850;DHT22;1940;51.052;13.678;2023-05-29T12:40:22;25.40;44.60
3850;DHT22;1940;51.052;13.678;2023-05-29T12:42:52;25.30;44.50
3850;DHT22;1940;51.052;13.678;2023-05-29T12:45:18;25.30;44.90
3850;DHT22;1940;51.052;13.678;2023-05-29T12:47:57;25.20;44.80
3850;DHT22;1940;51.052;13.678;2023-05-29T12:50:30;25.10;45.60
3850;DHT22;1940;51.052;13.678;2023-05-29T12:53:06;25.20;44.80
3850;DHT22;1940;51.052;13.678;2023-05-29T12:55:35;25.60;45.40
3850;DHT22;1940;51.052;13.678;2023-05-29T12:58:08;25.70;44.30
3850;DHT22;1940;51.052;13.678;2023-05-29T13:00:36;25.70;44.50
3850;DHT22;1940;51.052;13.678;2023-05-29T13:03:02;25.70;44.60
3850;DHT22;1940;51.052;13.678;2023-05-29T13:05:28;25.80;44.20
3850;DHT22;1940;51.052;13.678;2023-05-29T13:07:54;25.90;43.50
3850;DHT22;1940;51.052;13.678;2023-05-29T13:10:20;25.50;44.20
3850;DHT22;1940;51.052;13.678;2023-05-29T13:12:47;25.20;44.20
3850;DHT22;1940;51.052;13.678;2023-05-29T13:15:14;25.10;45.40
3850;DHT22;1940;51.052;13.678;2023-05-29T13:17:40;24.60;45.90
3850;DHT22;1940;51.052;13.678;2023-05-29T13:20:08;24.30;46.60
3850;DHT22;1940;51.052;13.678;2023-05-29T13:22:35;24.40;47.20
3850;DHT22;1940;51.052;13.678;2023-05-29T13:25:01;24.20;47.30
3850;DHT22;1940;51.052;13.678;2023-05-29T13:27:26;24.30;47.00
3850;DHT22;1940;51.052;13.678;2023-05-29T13:29:53;24.50;46.00
3850;DHT22;1940;51.052;13.678;2023-05-29T13:32:20;24.70;46.00
3850;DHT22;1940;51.052;13.678;2023-05-29T13:34:45;24.80;46.10
3850;DHT22;1940;51.052;13.678;2023-05-29T13:37:11;25.00;45.70
3850;DHT22;1940;51.052;13.678;2023-05-29T13:39:36;24.90;45.80
3850;DHT22;1940;51.052;13.678;2023-05-29T13:42:02;25.00;46.10
3850;DHT22;1940;51.052;13.678;2023-05-29T13:44:27;25.20;46.50
3850;DHT22;1940;51.052;13.678;2023-05-29T13:46:53;25.30;46.60
3850;DHT22;1940;51.052;13.678;2023-05-29T13:49:19;25.30;47.00
3850;DHT22;1940;51.052;13.678;2023-05-29T13:51:45;25.20;46.60
3850;DHT22;1940;51.052;13.678;2023-05-29T13:54:12;25.30;46.10
3850;DHT22;1940;51.052;13.678;2023-05-29T13:56:37;25.20;46.70
3850;DHT22;1940;51.052;13.678;2023-05-29T13:59:03;25.20;46.00
3850;DHT22;1940;51.052;13.678;2023-05-29T14:01:31;25.10;46.10
3850;DHT22;1940;51.052;13.678;2023-05-29T14:03:57;25.10;46.70
3850;DHT22;1940;51.052;13.678;2023-05-29T14:06:22;25.10;46.40
3850;DHT22;1940;51.052;13.678;2023-05-29T14:08:48;25.10;45.80
3850;DHT22;1940;51.052;13.678;2023-05-29T14:11:16;25.20;45.30
3850;DHT22;1940;51.052;13.678;2023-05-29T14:13:42;25.00;46.50
3850;DHT22;1940;51.052;13.678;2023-05-29T14:16:07;25.00;47.70
3850;DHT22;1940;51.052;13.678;2023-05-29T14:18:33;24.80;47.10
3850;DHT22;1940;51.052;13.678;2023-05-29T14:20:58;24.70;47.50
3850;DHT22;1940;51.052;13.678;2023-05-29T14:23:24;24.70;48.30
3850;DHT22;1940;51.052;13.678;2023-05-29T14:25:49;24.40;47.70
3850;DHT22;1940;51.052;13.678;2023-05-29T14:28:16;24.30;47.60
3850;DHT22;1940;51.052;13.678;2023-05-29T14:30:42;24.20;47.90
3850;DHT22;1940;51.052;13.678;2023-05-29T14:33:08;24.00;48.50
3850;DHT22;1940;51.052;13.678;2023-05-29T14:35:33;23.80;48.50
3850;DHT22;1940;51.052;13.678;2023-05-29T14:37:59;23.70;49.10
3850;DHT22;1940;51.052;13.678;2023-05-29T14:40:24;23.80;48.20
3850;DHT22;1940;51.052;13.678;2023-05-29T14:42:50;23.80;48.90
3850;DHT22;1940;51.052;13.678;2023-05-29T14:45:16;23.90;49.70
3850;DHT22;1940;51.052;13.678;2023-05-29T14:47:42;24.00;48.30
3850;DHT22;1940;51.052;13.678;2023-05-29T14:50:08;24.00;48.80
3850;DHT22;1940;51.052;13.678;2023-05-29T14:52:33;24.20;49.30
3850;DHT22;1940;51.052;13.678;2023-05-29T14:55:01;24.40;48.20
3850;DHT22;1940;51.052;13.678;2023-05-29T14:57:27;24.30;47.60
3850;DHT22;1940;51.052;13.678;2023-05-29T14:59:52;24.20;47.30
3850;DHT22;1940;51.052;13.678;2023-05-29T15:02:18;24.10;47.60
3850;DHT22;1940;51.052;13.678;2023-05-29T15:04:43;24.00;48.30
3850;DHT22;1940;51.052;13.678;2023-05-29T15:07:09;23.90;49.00
3850;DHT22;1940;51.052;13.678;2023-05-29T15:09:34;23.80;48.40
3850;DHT22;1940;51.052;13.678;2023-05-29T15:12:00;23.90;48.30
3850;DHT22;1940;51.052;13.678;2023-05-29T15:14:26;23.90;48.50
3850;DHT22;1940;51.052;13.678;2023-05-29T15:16:51;23.90;48.70
3850;DHT22;1940;51.052;13.678;2023-05-29T15:19:17;23.90;49.20
3850;DHT22;1940;51.052;13.678;2023-05-29T15:21:42;23.80;48.40
3850;DHT22;1940;51.052;13.678;2023-05-29T15:24:08;23.70;48.30
3850;DHT22;1940;51.052;13.678;2023-05-29T15:26:34;23.60;48.20
3850;DHT22;1940;51.052;13.678;2023-05-29T15:29:00;23.70;48.70
3850;DHT22;1940;51.052;13.678;2023-05-29T15:31:25;23.90;48.50
3850;DHT22;1940;51.052;13.678;2023-05-29T15:33:51;24.00;49.40
3850;DHT22;1940;51.052;13.678;2023-05-29T15:36:16;24.10;48.60
3850;DHT22;1940;51.052;13.678;2023-05-29T15:38:44;24.20;48.10
3850;DHT22;1940;51.052;13.678;2023-05-29T15:41:09;24.00;48.80
3850;DHT22;1940;51.052;13.678;2023-05-29T15:43:35;23.80;49.20
3850;DHT22;1940;51.052;13.678;2023-05-29T15:46:00;24.00;49.70
3850;DHT22;1940;51.052;13.678;2023-05-29T15:48:26;24.00;49.30
3850;DHT22;1940;51.052;13.678;2023-05-29T15:50:51;23.90;49.30
3850;DHT22;1940;51.052;13.678;2023-05-29T15:53:17;23.90;49.20
3850;DHT22;1940;51.052;13.678;2023-05-29T15:55:42;23.80;49.10
3850;DHT22;1940;51.052;13.678;2023-05-29T15:58:08;23.90;49.60
3850;DHT22;1940;51.052;13.678;2023-05-29T16:00:34;23.80;49.60
3850;DHT22;1940;51.052;13.678;2023-05-29T16:03:00;23.80;48.90
3850;DHT22;1940;51.052;13.678;2023-05-29T16:05:26;23.80;48.80